createdAt,value
2019-03-18T00:00:50.234Z,2.70
2019-03-18T00:03:19.484Z,2.57
2019-03-18T00:05:48.742Z,2.47
2019-03-18T00:08:17.975Z,2.50
2019-03-18T00:10:47.196Z,2.47
2019-03-18T00:13:16.461Z,2.20
2019-03-18T00:15:45.678Z,2.67
2019-03-18T00:18:15.050Z,2.23
2019-03-18T00:20:44.303Z,2.20
2019-03-18T00:23:13.577Z,2.30
2019-03-18T00:26:02.149Z,2.40
2019-03-18T00:28:31.514Z,2.50
2019-03-18T00:31:00.727Z,2.20
2019-03-18T00:33:29.982Z,2.33
2019-03-18T00:35:59.214Z,2.47
2019-03-18T00:38:28.503Z,2.83
2019-03-18T00:40:57.755Z,2.77
2019-03-18T00:43:46.343Z,2.40
2019-03-18T00:46:15.595Z,2.60
2019-03-18T00:48:44.839Z,2.73
2019-03-18T00:51:14.122Z,2.83
2019-03-18T00:53:43.370Z,2.60
2019-03-18T00:56:12.676Z,2.60
2019-03-18T00:58:41.939Z,2.97
2019-03-18T01:01:11.172Z,3.60
2019-03-18T01:03:40.415Z,3.87
2019-03-18T01:06:29.012Z,3.50
2019-03-18T01:08:58.228Z,3.67
2019-03-18T01:11:46.814Z,3.70
2019-03-18T01:14:16.084Z,3.37
2019-03-18T01:16:45.319Z,3.37
2019-03-18T01:19:14.562Z,4.67
2019-03-18T01:21:45.430Z,4.27
2019-03-18T01:24:14.699Z,3.90
2019-03-18T01:26:43.923Z,3.80
2019-03-18T01:29:25.474Z,3.83
2019-03-18T01:31:54.714Z,4.37
2019-03-18T01:34:23.969Z,4.17
2019-03-18T01:36:53.203Z,4.23
2019-03-18T01:39:22.427Z,4.00
2019-03-18T01:41:51.663Z,5.13
2019-03-18T01:44:21.789Z,5.40
2019-03-18T01:46:51.022Z,4.70
2019-03-18T01:49:20.319Z,3.87
2019-03-18T01:51:49.558Z,4.93
2019-03-18T01:54:18.843Z,4.57
2019-03-18T01:57:07.411Z,3.87
2019-03-18T01:59:36.703Z,5.00
2019-03-18T02:02:05.926Z,5.10
2019-03-18T02:04:35.181Z,4.80
2019-03-18T02:07:04.486Z,4.80
2019-03-18T02:09:33.754Z,5.07
2019-03-18T02:12:22.486Z,4.80
2019-03-18T02:14:51.711Z,4.63
2019-03-18T02:17:20.963Z,5.00
2019-03-18T02:19:50.200Z,4.90
2019-03-18T02:22:19.452Z,5.20
2019-03-18T02:24:48.731Z,4.70
2019-03-18T02:27:18.007Z,4.93
2019-03-18T02:29:47.230Z,4.60
2019-03-18T02:32:16.450Z,5.20
2019-03-18T02:34:45.691Z,5.10
2019-03-18T02:37:14.918Z,4.10
2019-03-18T02:39:44.148Z,4.63
2019-03-18T02:42:13.432Z,5.60
2019-03-18T02:44:42.716Z,5.00
2019-03-18T02:47:11.967Z,5.10
2019-03-18T02:49:41.212Z,5.10
2019-03-18T02:52:10.424Z,5.20
2019-03-18T02:54:39.663Z,5.33
2019-03-18T02:57:08.906Z,5.40
2019-03-18T02:59:38.197Z,5.97
2019-03-18T03:02:07.551Z,6.37
2019-03-18T03:04:36.770Z,6.40
2019-03-18T03:07:06.023Z,5.67
2019-03-18T03:09:54.615Z,6.27
2019-03-18T03:12:23.858Z,6.63
2019-03-18T03:14:53.116Z,7.03
2019-03-18T03:17:22.357Z,8.00
2019-03-18T03:19:51.585Z,8.60
2019-03-18T03:22:20.849Z,8.20
2019-03-18T03:25:09.949Z,8.97
2019-03-18T03:27:39.311Z,8.27
2019-03-18T03:30:13.470Z,8.00
2019-03-18T03:32:42.881Z,8.30
2019-03-18T03:35:12.379Z,7.47
2019-03-18T03:37:41.635Z,8.90
2019-03-18T03:40:14.310Z,9.17
2019-03-18T03:42:43.673Z,8.43
2019-03-18T03:45:14.735Z,9.20
2019-03-18T03:47:44.122Z,9.40
2019-03-18T03:50:14.592Z,9.37
2019-03-18T03:52:43.822Z,9.80
2019-03-18T03:55:13.977Z,10.63
2019-03-18T03:57:43.693Z,10.47
2019-03-18T04:00:14.450Z,10.07
2019-03-18T04:02:43.773Z,10.30
2019-03-18T04:05:13.188Z,11.87
2019-03-18T04:07:42.644Z,11.97
2019-03-18T04:10:13.234Z,11.10
2019-03-18T04:12:42.538Z,12.00
2019-03-18T04:15:15.689Z,12.47
2019-03-18T04:17:44.996Z,11.27
2019-03-18T04:20:15.701Z,11.77
2019-03-18T04:22:44.963Z,11.80
2019-03-18T04:25:14.238Z,11.70
2019-03-18T04:28:02.867Z,12.10
2019-03-18T04:30:32.101Z,12.60
2019-03-18T04:33:01.368Z,12.80
2019-03-18T04:35:30.598Z,11.30
2019-03-18T04:37:59.845Z,11.30
2019-03-18T04:40:29.112Z,11.20
2019-03-18T04:42:58.336Z,12.10
2019-03-18T04:45:27.611Z,10.73
2019-03-18T04:47:56.839Z,11.60
2019-03-18T04:50:45.442Z,13.00
2019-03-18T04:53:14.679Z,11.47
2019-03-18T04:55:43.905Z,12.50
2019-03-18T04:58:13.178Z,13.27
2019-03-18T05:00:42.429Z,13.40
2019-03-18T05:03:11.684Z,12.77
2019-03-18T05:05:40.939Z,13.87
2019-03-18T05:08:10.174Z,13.83
2019-03-18T05:10:58.797Z,13.27
2019-03-18T05:13:28.081Z,14.50
2019-03-18T05:15:57.334Z,17.83
2019-03-18T05:18:26.565Z,15.90
2019-03-18T05:20:55.795Z,16.43
2019-03-18T05:23:25.042Z,15.83
2019-03-18T05:25:54.318Z,17.70
2019-03-18T05:28:23.558Z,17.47
2019-03-18T05:30:52.895Z,18.90
2019-03-18T05:33:22.162Z,18.87
2019-03-18T05:35:51.391Z,18.47
2019-03-18T05:38:20.700Z,19.43
2019-03-18T05:40:49.971Z,17.97
2019-03-18T05:43:19.202Z,21.10
2019-03-18T05:45:48.451Z,19.13
2019-03-18T05:48:17.688Z,20.67
2019-03-18T05:50:46.947Z,20.20
2019-03-18T05:53:35.523Z,19.10
2019-03-18T05:56:04.802Z,20.80
2019-03-18T05:58:34.038Z,22.17
2019-03-18T06:01:03.365Z,20.47
2019-03-18T06:03:32.596Z,21.37
2019-03-18T06:06:01.843Z,21.80
2019-03-18T06:08:31.097Z,21.60
2019-03-18T06:11:00.351Z,22.50
2019-03-18T06:13:29.671Z,21.80
2019-03-18T06:16:18.282Z,23.07
2019-03-18T06:18:47.539Z,23.37
2019-03-18T06:21:16.791Z,22.07
2019-03-18T06:23:46.063Z,23.50
2019-03-18T06:26:15.344Z,23.50
2019-03-18T06:28:44.632Z,26.70
2019-03-18T06:31:13.886Z,22.23
2019-03-18T06:33:43.226Z,23.30
2019-03-18T06:36:12.469Z,18.20
2019-03-18T06:38:44.683Z,22.20
2019-03-18T06:41:13.937Z,23.03
2019-03-18T06:43:43.181Z,26.73
2019-03-18T06:46:12.450Z,25.70
2019-03-18T06:48:41.739Z,26.97
2019-03-18T06:51:10.998Z,26.37
2019-03-18T06:53:43.111Z,29.57
2019-03-18T06:56:12.366Z,27.73
2019-03-18T06:58:42.811Z,28.90
2019-03-18T07:01:13.254Z,27.40
2019-03-18T07:03:42.504Z,26.50
2019-03-18T07:06:11.769Z,24.97
2019-03-18T07:08:41.003Z,27.00
2019-03-18T07:11:10.285Z,27.50
2019-03-18T07:13:39.523Z,23.03
2019-03-18T07:16:08.848Z,22.57
2019-03-18T07:18:40.911Z,23.57
2019-03-18T07:21:10.154Z,22.23
2019-03-18T07:23:39.394Z,21.67
2019-03-18T07:26:08.700Z,22.43
2019-03-18T07:28:37.935Z,20.17
2019-03-18T07:31:08.337Z,19.73
2019-03-18T07:33:37.646Z,19.47
2019-03-18T07:36:08.191Z,18.07
2019-03-18T07:38:37.527Z,18.67
2019-03-18T07:41:06.862Z,18.50
2019-03-18T07:43:36.108Z,19.97
2019-03-18T07:46:06.359Z,20.03
2019-03-18T07:48:36.698Z,20.47
2019-03-18T07:51:06.001Z,18.17
2019-03-18T07:53:35.238Z,20.00
2019-03-18T07:56:04.644Z,18.63
2019-03-18T07:58:33.887Z,19.00
2019-03-18T08:01:04.533Z,19.30
2019-03-18T08:03:36.442Z,19.97
2019-03-18T08:06:04.807Z,21.03
2019-03-18T08:08:34.084Z,17.20
2019-03-18T08:11:09.389Z,16.97
2019-03-18T08:13:38.687Z,18.63
2019-03-18T08:16:07.919Z,18.77
2019-03-18T08:18:43.247Z,17.43
2019-03-18T08:21:10.416Z,17.93
2019-03-18T08:23:39.777Z,17.47
2019-03-18T08:26:09.046Z,16.07
2019-03-18T08:28:38.311Z,17.17
2019-03-18T08:31:07.617Z,15.50
2019-03-18T08:33:36.922Z,12.53
2019-03-18T08:36:06.217Z,14.10
2019-03-18T08:38:36.739Z,12.97
2019-03-18T08:41:07.378Z,13.33
2019-03-18T08:43:36.680Z,12.87
2019-03-18T08:46:05.921Z,12.70
2019-03-18T08:48:35.167Z,13.30
2019-03-18T08:51:04.498Z,12.53
2019-03-18T08:53:33.833Z,12.07
2019-03-18T08:56:03.061Z,12.67
2019-03-18T08:58:32.297Z,13.43
2019-03-18T09:01:01.719Z,13.87
2019-03-18T09:03:30.972Z,11.30
2019-03-18T09:06:00.286Z,11.40
2019-03-18T09:08:29.603Z,11.93
2019-03-18T09:10:59.078Z,12.07
2019-03-18T09:13:28.401Z,10.70
2019-03-18T09:15:57.638Z,11.40
2019-03-18T09:18:26.874Z,9.70
2019-03-18T09:20:56.119Z,10.83
2019-03-18T09:23:25.344Z,8.40
2019-03-18T09:25:54.610Z,9.20
2019-03-18T09:28:23.860Z,7.27
2019-03-18T09:30:53.106Z,6.70
2019-03-18T09:33:22.383Z,7.90
2019-03-18T09:35:52.622Z,6.87
2019-03-18T09:38:21.873Z,6.87
2019-03-18T09:40:51.258Z,7.10
2019-03-18T09:43:20.499Z,5.03
2019-03-18T09:45:49.765Z,5.97
2019-03-18T09:48:19.106Z,4.80
2019-03-18T09:50:48.359Z,4.13
2019-03-18T09:53:17.591Z,4.20
2019-03-18T09:55:46.852Z,4.30
2019-03-18T09:58:16.110Z,4.33
2019-03-18T10:00:46.827Z,5.00
2019-03-18T10:03:16.055Z,4.47
2019-03-18T10:05:45.314Z,5.30
2019-03-18T10:08:14.548Z,3.77
2019-03-18T10:10:43.846Z,4.60
2019-03-18T10:13:13.099Z,5.77
2019-03-18T10:15:42.340Z,4.27
2019-03-18T10:18:13.070Z,3.80
2019-03-18T10:20:42.332Z,4.00
2019-03-18T10:23:11.595Z,4.83
2019-03-18T10:25:40.846Z,4.23
2019-03-18T10:28:10.091Z,3.30
2019-03-18T10:30:39.323Z,3.23
2019-03-18T10:33:08.559Z,2.90
2019-03-18T10:35:39.102Z,3.40
2019-03-18T10:38:08.320Z,3.63
2019-03-18T10:40:37.576Z,3.10
2019-03-18T10:43:06.898Z,3.30
2019-03-18T10:45:36.175Z,2.97
2019-03-18T10:48:05.519Z,3.67
2019-03-18T10:50:34.763Z,2.93
2019-03-18T10:53:04.158Z,3.23
2019-03-18T10:55:33.398Z,3.50
2019-03-18T10:58:02.661Z,2.97
2019-03-18T11:00:31.976Z,2.67
2019-03-18T11:03:01.291Z,2.73
2019-03-18T11:05:30.532Z,3.20
2019-03-18T11:08:01.062Z,3.40
2019-03-18T11:10:30.391Z,2.40
2019-03-18T11:12:59.706Z,3.73
2019-03-18T11:15:29.902Z,3.57
2019-03-18T11:18:00.476Z,3.83
2019-03-18T11:20:29.798Z,3.00
2019-03-18T11:22:59.105Z,3.40
2019-03-18T11:25:28.381Z,3.10
2019-03-18T11:27:57.631Z,3.10
2019-03-18T11:30:26.955Z,4.17
2019-03-18T11:32:56.198Z,3.00
2019-03-18T11:35:25.424Z,3.37
2019-03-18T11:37:54.693Z,3.10
2019-03-18T11:40:23.945Z,3.20
2019-03-18T11:42:53.271Z,4.13
2019-03-18T11:45:25.985Z,4.07
2019-03-18T11:47:55.219Z,3.10
2019-03-18T11:50:24.463Z,3.77
2019-03-18T11:52:53.790Z,3.40
2019-03-18T11:55:25.466Z,4.00
2019-03-18T11:57:54.775Z,3.03
2019-03-18T12:00:27.418Z,3.20
2019-03-18T12:02:56.665Z,2.23
2019-03-18T12:05:29.070Z,2.97
2019-03-18T12:07:58.428Z,3.57
2019-03-18T12:10:27.665Z,2.90
2019-03-18T12:12:56.894Z,4.10
2019-03-18T12:15:27.204Z,4.23
2019-03-18T12:17:56.442Z,5.73
2019-03-18T12:20:26.064Z,2.93
2019-03-18T12:22:55.562Z,3.33
2019-03-18T12:25:24.962Z,4.37
2019-03-18T12:27:54.326Z,4.00
2019-03-18T12:30:24.734Z,4.00
2019-03-18T12:32:53.960Z,5.07
2019-03-18T12:35:23.325Z,5.13
2019-03-18T12:37:52.627Z,4.77
2019-03-18T12:40:21.962Z,3.80
2019-03-18T12:42:51.204Z,3.83
2019-03-18T12:45:21.603Z,3.60
2019-03-18T12:47:50.945Z,3.13
2019-03-18T12:50:36.934Z,3.00
2019-03-18T12:52:52.795Z,2.90
2019-03-18T12:55:22.092Z,2.60
2019-03-18T12:57:51.441Z,2.40
2019-03-18T13:00:29.560Z,2.40
2019-03-18T13:02:58.874Z,2.37
2019-03-18T13:05:28.347Z,3.00
2019-03-18T13:07:57.697Z,2.60
2019-03-18T13:10:27.003Z,2.60
2019-03-18T13:12:56.430Z,3.20
2019-03-18T13:15:25.941Z,2.20
2019-03-18T13:17:55.191Z,3.03
2019-03-18T13:20:24.501Z,5.60
2019-03-18T13:22:54.407Z,4.83
2019-03-18T13:25:25.026Z,3.00
2019-03-18T13:27:54.483Z,2.50
2019-03-18T13:30:25.646Z,3.07
2019-03-18T13:32:54.894Z,2.73
2019-03-18T13:35:24.235Z,2.77
2019-03-18T13:37:53.488Z,2.37
2019-03-18T13:40:24.112Z,3.47
2019-03-18T13:42:53.363Z,2.53
2019-03-18T13:45:23.859Z,2.77
2019-03-18T13:47:53.154Z,2.27
2019-03-18T13:50:22.961Z,2.60
2019-03-18T13:52:52.306Z,2.43
2019-03-18T13:55:21.532Z,3.00
2019-03-18T13:57:50.879Z,2.50
2019-03-18T14:00:21.225Z,3.40
2019-03-18T14:02:50.552Z,2.20
2019-03-18T14:05:21.138Z,3.17
2019-03-18T14:08:00.027Z,2.70
2019-03-18T14:10:22.931Z,3.60
2019-03-18T14:12:53.835Z,2.17
2019-03-18T14:15:24.335Z,2.93
2019-03-18T14:17:53.652Z,2.70
2019-03-18T14:20:24.403Z,3.20
2019-03-18T14:22:53.998Z,2.37
2019-03-18T14:25:24.943Z,2.70
2019-03-18T14:27:54.258Z,3.13
2019-03-18T14:30:24.011Z,3.33
2019-03-18T14:32:54.705Z,2.30
2019-03-18T14:35:23.963Z,2.97
2019-03-18T14:37:53.220Z,2.30
2019-03-18T14:40:23.808Z,2.70
2019-03-18T14:42:53.069Z,2.43
2019-03-18T14:45:23.416Z,2.73
2019-03-18T14:47:52.667Z,3.00
2019-03-18T14:50:22.023Z,2.40
2019-03-18T14:52:51.342Z,2.60
2019-03-18T14:55:20.725Z,2.80
2019-03-18T14:57:49.991Z,2.40
2019-03-18T15:00:27.090Z,2.50
2019-03-18T15:02:56.362Z,2.87
2019-03-18T15:05:25.776Z,2.93
2019-03-18T15:07:55.003Z,2.17
2019-03-18T15:10:26.675Z,2.80
2019-03-18T15:12:55.935Z,2.33
2019-03-18T15:15:25.316Z,2.33
2019-03-18T15:17:54.560Z,2.07
2019-03-18T15:20:27.718Z,2.40
2019-03-18T15:22:57.167Z,2.27
2019-03-18T15:25:28.231Z,1.83
2019-03-18T15:27:57.526Z,2.40
2019-03-18T15:30:26.822Z,2.10
2019-03-18T15:32:56.235Z,2.30
2019-03-18T15:35:25.481Z,2.97
2019-03-18T15:37:54.803Z,2.30
2019-03-18T15:40:30.426Z,2.30
2019-03-18T15:42:59.778Z,2.40
2019-03-18T15:45:29.103Z,2.43
2019-03-18T15:47:58.568Z,2.00
2019-03-18T15:50:28.170Z,2.10
2019-03-18T15:52:57.405Z,1.90
2019-03-18T15:55:28.324Z,2.87
2019-03-18T15:57:59.262Z,2.17
2019-03-18T16:00:29.961Z,2.30
2019-03-18T16:02:59.587Z,2.00
2019-03-18T16:05:28.840Z,2.40
2019-03-18T16:07:58.080Z,2.37
2019-03-18T16:10:46.692Z,2.73
2019-03-18T16:13:15.924Z,2.90
2019-03-18T16:15:45.168Z,2.00
2019-03-18T16:18:18.213Z,2.70
2019-03-18T16:20:47.470Z,2.67
2019-03-18T16:23:16.783Z,2.90
2019-03-18T16:25:47.234Z,4.40
2019-03-18T16:28:16.538Z,6.37
2019-03-18T16:30:45.905Z,3.43
2019-03-18T16:33:15.953Z,2.47
2019-03-18T16:35:45.296Z,2.57
2019-03-18T16:38:14.550Z,2.70
2019-03-18T16:40:43.803Z,2.90
2019-03-18T16:43:13.145Z,3.23
2019-03-18T16:45:42.407Z,3.00
2019-03-18T16:48:11.659Z,4.53
2019-03-18T16:50:40.956Z,3.17
2019-03-18T16:53:10.222Z,2.53
2019-03-18T16:55:39.493Z,3.83
2019-03-18T16:58:08.750Z,3.10
2019-03-18T17:00:37.993Z,3.37
2019-03-18T17:03:07.260Z,3.17
2019-03-18T17:05:36.508Z,3.67
2019-03-18T17:08:05.759Z,3.23
2019-03-18T17:10:34.990Z,3.40
2019-03-18T17:13:04.236Z,3.03
2019-03-18T17:15:33.494Z,4.03
2019-03-18T17:18:02.748Z,3.57
2019-03-18T17:20:31.989Z,4.60
2019-03-18T17:23:20.579Z,4.40
2019-03-18T17:25:49.827Z,4.20
2019-03-18T17:28:19.102Z,4.03
2019-03-18T17:30:48.360Z,5.23
2019-03-18T17:33:17.653Z,4.30
2019-03-18T17:35:52.694Z,3.40
2019-03-18T17:38:21.974Z,3.43
2019-03-18T17:41:10.550Z,3.53
2019-03-18T17:43:39.917Z,2.93
2019-03-18T17:46:46.611Z,3.07
2019-03-18T17:49:15.869Z,3.20
2019-03-18T17:51:47.003Z,2.77
2019-03-18T17:54:16.275Z,2.93
2019-03-18T17:56:45.601Z,2.97
2019-03-18T17:59:14.848Z,3.47
2019-03-18T18:02:03.528Z,3.30
2019-03-18T18:04:32.947Z,4.17
2019-03-18T18:07:02.175Z,3.90
2019-03-18T18:09:31.433Z,4.20
2019-03-18T18:12:20.088Z,4.30
2019-03-18T18:14:49.358Z,3.47
2019-03-18T18:17:18.746Z,5.43
2019-03-18T18:19:48.050Z,16.87
2019-03-18T18:22:17.359Z,4.37
2019-03-18T18:24:46.655Z,4.03
2019-03-18T18:27:15.878Z,3.43
2019-03-18T18:29:45.191Z,3.13
2019-03-18T18:32:14.461Z,4.07
2019-03-18T18:35:03.156Z,3.80
2019-03-18T18:37:32.463Z,3.50
2019-03-18T18:40:03.714Z,3.10
2019-03-18T18:42:32.679Z,2.63
2019-03-18T18:45:02.087Z,3.40
2019-03-18T18:47:31.365Z,2.70
2019-03-18T18:50:00.695Z,3.07
2019-03-18T18:52:29.998Z,2.40
2019-03-18T18:54:59.318Z,2.97
2019-03-18T18:57:28.587Z,3.40
2019-03-18T18:59:57.843Z,2.40
2019-03-18T19:02:27.093Z,3.67
2019-03-18T19:04:56.401Z,5.60
2019-03-18T19:07:25.642Z,4.00
2019-03-18T19:09:54.904Z,8.73
2019-03-18T19:12:24.183Z,11.70
2019-03-18T19:14:53.428Z,6.17
2019-03-18T19:17:22.692Z,2.97
2019-03-18T19:19:51.936Z,3.53
2019-03-18T19:22:21.207Z,2.90
2019-03-18T19:24:50.456Z,2.20
2019-03-18T19:27:19.840Z,2.50
2019-03-18T19:29:49.095Z,3.30
2019-03-18T19:32:18.356Z,3.73
2019-03-18T19:34:47.687Z,3.60
2019-03-18T19:37:16.948Z,4.00
2019-03-18T19:40:07.102Z,5.57
2019-03-18T19:42:36.505Z,3.50
2019-03-18T19:45:08.742Z,3.70
2019-03-18T19:47:37.991Z,3.50
2019-03-18T19:50:13.638Z,4.23
2019-03-18T19:52:42.896Z,4.77
2019-03-18T19:55:12.451Z,3.50
2019-03-18T19:57:41.815Z,3.80
2019-03-18T20:00:14.312Z,3.90
2019-03-18T20:02:43.703Z,3.50
2019-03-18T20:05:32.323Z,3.97
2019-03-18T20:08:01.630Z,2.97
2019-03-18T20:10:30.904Z,2.70
2019-03-18T20:13:00.247Z,3.33
2019-03-18T20:15:29.596Z,3.20
2019-03-18T20:17:58.880Z,3.30
2019-03-18T20:20:28.228Z,3.53
2019-03-18T20:22:57.701Z,4.60
2019-03-18T20:25:27.003Z,3.93
2019-03-18T20:27:56.350Z,4.40
2019-03-18T20:30:25.628Z,3.50
2019-03-18T20:32:55.008Z,3.30
2019-03-18T20:35:24.919Z,3.63
2019-03-18T20:37:54.420Z,4.43
2019-03-18T20:40:23.755Z,3.20
2019-03-18T20:42:53.085Z,3.73
2019-03-18T20:45:24.574Z,4.00
2019-03-18T20:47:53.841Z,3.80
2019-03-18T20:50:25.061Z,3.13
2019-03-18T20:53:13.659Z,3.37
2019-03-18T20:55:43.016Z,3.80
2019-03-18T20:58:12.317Z,3.20
2019-03-18T21:00:41.621Z,3.20
2019-03-18T21:03:11.126Z,5.40
2019-03-18T21:05:40.456Z,3.80
2019-03-18T21:08:09.796Z,3.60
2019-03-18T21:10:39.099Z,3.87
2019-03-18T21:13:08.360Z,3.30
2019-03-18T21:15:37.604Z,4.40
2019-03-18T21:18:06.996Z,3.70
2019-03-18T21:20:36.329Z,3.20
2019-03-18T21:23:05.586Z,3.70
2019-03-18T21:25:34.934Z,3.90
2019-03-18T21:28:04.256Z,4.20
2019-03-18T21:30:33.525Z,4.30
2019-03-18T21:33:02.797Z,4.57
2019-03-18T21:35:32.442Z,3.30
2019-03-18T21:38:01.664Z,2.83
2019-03-18T21:40:30.973Z,3.77
2019-03-18T21:43:00.236Z,2.70
2019-03-18T21:45:29.443Z,3.20
2019-03-18T21:47:58.787Z,3.77
2019-03-18T21:50:28.027Z,4.93
2019-03-18T21:52:57.300Z,3.10
2019-03-18T21:55:26.550Z,3.87
2019-03-18T21:57:55.808Z,3.90
2019-03-18T22:00:25.110Z,4.07
2019-03-18T22:02:54.471Z,3.90
2019-03-18T22:05:23.723Z,3.73
2019-03-18T22:07:52.970Z,3.63
2019-03-18T22:10:22.302Z,3.87
2019-03-18T22:12:51.529Z,3.63
2019-03-18T22:15:21.100Z,3.70
2019-03-18T22:17:50.434Z,3.03
2019-03-18T22:20:20.312Z,3.10
2019-03-18T22:22:49.561Z,3.83
2019-03-18T22:25:18.883Z,3.33
2019-03-18T22:27:48.229Z,4.47
2019-03-18T22:30:20.501Z,2.90
2019-03-18T22:33:09.079Z,3.63
2019-03-18T22:35:38.342Z,3.63
2019-03-18T22:38:19.978Z,4.30
2019-03-18T22:40:52.840Z,3.70
2019-03-18T22:43:22.067Z,3.73
2019-03-18T22:45:51.316Z,4.17
2019-03-18T22:48:20.536Z,4.10
2019-03-18T22:50:49.791Z,4.10
2019-03-18T22:53:19.187Z,4.73
2019-03-18T22:55:48.443Z,5.00
2019-03-18T22:58:19.391Z,4.83
2019-03-18T23:00:50.303Z,4.63
2019-03-18T23:03:19.623Z,4.80
2019-03-18T23:05:48.850Z,4.03
2019-03-18T23:08:18.099Z,4.67
2019-03-18T23:10:47.453Z,3.60
2019-03-18T23:13:16.689Z,4.63
2019-03-18T23:15:46.022Z,3.93
2019-03-18T23:18:15.270Z,4.13
2019-03-18T23:20:44.568Z,4.67
2019-03-18T23:23:13.865Z,4.80
2019-03-18T23:25:43.162Z,4.57
2019-03-18T23:28:12.411Z,4.67
2019-03-18T23:30:43.216Z,4.80
2019-03-18T23:33:12.451Z,3.90
2019-03-18T23:35:41.681Z,5.47
2019-03-18T23:38:10.920Z,4.70
2019-03-18T23:40:40.248Z,5.93
2019-03-18T23:43:09.470Z,5.47
2019-03-18T23:45:38.743Z,5.70
2019-03-18T23:48:07.971Z,5.83
2019-03-18T23:50:37.265Z,4.70
2019-03-18T23:53:06.619Z,5.03
2019-03-18T23:55:35.839Z,4.40
2019-03-18T23:58:05.279Z,4.17
